N312YH KSFO-KLAX
Flight info
| Callsign | N312YH |
|---|---|
| Flight time | 1h 5m |
| Altitude | 41000 |
| Route | WESLA5 SUSEY EBAYE BURGL IRNMN2 |
| Aircraft | C25C/M-SDE2E3FGHRWXY/LB1 |
Departure
| Time | 2026-04-20 02:03 |
|---|---|
| Airport | San Francisco International Airport (KSFO) |
Arrival
| Time | 2026-04-20 03:08 |
|---|---|
| Airport | Los Angeles International Airport (KLAX) |
| Time | Latitude | Longitude | Altitude | Speed | Heading |
|---|---|---|---|---|---|
| 2026-04-20 01:43 | 37.62754 | -122.38314 | 9 ft | 0 kts | 297° |
| 2026-04-20 01:56 | 37.62755 | -122.38314 | 9 ft | 1 kts | 297° |
| 2026-04-20 01:56 | 37.62761 | -122.38354 | 9 ft | 10 kts | 250° |
| 2026-04-20 01:56 | 37.62706 | -122.38451 | 9 ft | 10 kts | 211° |
| 2026-04-20 01:57 | 37.62650 | -122.38435 | 10 ft | 13 kts | 119° |
| 2026-04-20 01:57 | 37.62591 | -122.38295 | 8 ft | 23 kts | 116° |
| 2026-04-20 01:57 | 37.62506 | -122.38092 | 11 ft | 29 kts | 118° |
| 2026-04-20 01:57 | 37.62413 | -122.37871 | 14 ft | 31 kts | 118° |
| 2026-04-20 01:58 | 37.62304 | -122.37608 | 12 ft | 34 kts | 118° |
| 2026-04-20 01:58 | 37.62235 | -122.37446 | 10 ft | 10 kts | 118° |
| 2026-04-20 01:58 | 37.62179 | -122.37312 | 6 ft | 28 kts | 118° |
| 2026-04-20 01:58 | 37.62084 | -122.37085 | 8 ft | 35 kts | 119° |
| 2026-04-20 01:59 | 37.61970 | -122.36814 | 13 ft | 33 kts | 118° |
| 2026-04-20 01:59 | 37.61866 | -122.36567 | 16 ft | 31 kts | 118° |
| 2026-04-20 01:59 | 37.61767 | -122.36329 | 13 ft | 30 kts | 118° |
| 2026-04-20 01:59 | 37.61670 | -122.36099 | 12 ft | 30 kts | 117° |
| 2026-04-20 02:00 | 37.61576 | -122.35874 | 16 ft | 28 kts | 117° |
| 2026-04-20 02:00 | 37.61494 | -122.35691 | 18 ft | 14 kts | 137° |
| 2026-04-20 02:00 | 37.61453 | -122.35676 | 19 ft | 0 kts | 188° |
| 2026-04-20 02:01 | 37.61445 | -122.35678 | 19 ft | 5 kts | 193° |
| 2026-04-20 02:01 | 37.61437 | -122.35680 | 19 ft | 0 kts | 197° |
| 2026-04-20 02:02 | 37.61427 | -122.35686 | 19 ft | 7 kts | 206° |
| 2026-04-20 02:02 | 37.61383 | -122.35782 | 15 ft | 18 kts | 285° |
| 2026-04-20 02:02 | 37.61407 | -122.35849 | 14 ft | 0 kts | 295° |
| 2026-04-20 02:03 | 37.61426 | -122.35893 | 13 ft | 28 kts | 297° |
| 2026-04-20 02:03 | 37.61708 | -122.36571 | 51 ft | 140 kts | 297° |
| 2026-04-20 02:03 | 37.62304 | -122.37781 | 751 ft | 176 kts | 298° |
| 2026-04-20 02:03 | 37.62867 | -122.39237 | 1711 ft | 191 kts | 288° |
| 2026-04-20 02:04 | 37.63460 | -122.40873 | 2671 ft | 222 kts | 290° |
| 2026-04-20 02:04 | 37.64212 | -122.42744 | 3005 ft | 248 kts | 293° |
| 2026-04-20 02:04 | 37.65026 | -122.44639 | 3008 ft | 247 kts | 293° |
| 2026-04-20 02:04 | 37.65834 | -122.46555 | 3024 ft | 245 kts | 292° |
| 2026-04-20 02:05 | 37.66604 | -122.48459 | 3024 ft | 241 kts | 288° |
| 2026-04-20 02:05 | 37.66832 | -122.50482 | 3015 ft | 230 kts | 260° |
| 2026-04-20 02:05 | 37.66389 | -122.52373 | 3014 ft | 222 kts | 236° |
| 2026-04-20 02:05 | 37.65353 | -122.53798 | 3489 ft | 220 kts | 211° |
| 2026-04-20 02:06 | 37.63987 | -122.54584 | 4873 ft | 222 kts | 191° |
| 2026-04-20 02:06 | 37.62435 | -122.54552 | 6158 ft | 226 kts | 169° |
| 2026-04-20 02:06 | 37.60945 | -122.53832 | 7351 ft | 233 kts | 159° |
| 2026-04-20 02:06 | 37.59428 | -122.53045 | 8549 ft | 238 kts | 160° |
| 2026-04-20 02:07 | 37.57888 | -122.52210 | 9747 ft | 244 kts | 160° |
| 2026-04-20 02:07 | 37.56301 | -122.51363 | 10844 ft | 248 kts | 160° |
| 2026-04-20 02:07 | 37.54721 | -122.50518 | 11975 ft | 250 kts | 161° |
| 2026-04-20 02:07 | 37.53100 | -122.49654 | 13136 ft | 253 kts | 161° |
| 2026-04-20 02:08 | 37.51461 | -122.48782 | 14227 ft | 256 kts | 161° |
| 2026-04-20 02:08 | 37.49828 | -122.47906 | 15187 ft | 261 kts | 160° |
| 2026-04-20 02:08 | 37.48318 | -122.46549 | 16129 ft | 275 kts | 141° |
| 2026-04-20 02:08 | 37.46986 | -122.44776 | 17078 ft | 281 kts | 140° |
| 2026-04-20 02:09 | 37.45650 | -122.42943 | 18022 ft | 286 kts | 139° |
| 2026-04-20 02:09 | 37.44294 | -122.41074 | 18859 ft | 291 kts | 140° |
| 2026-04-20 02:09 | 37.42908 | -122.39185 | 19658 ft | 297 kts | 140° |
| 2026-04-20 02:09 | 37.41476 | -122.37249 | 20332 ft | 307 kts | 140° |
| 2026-04-20 02:10 | 37.40009 | -122.35256 | 21160 ft | 312 kts | 140° |
| 2026-04-20 02:10 | 37.38521 | -122.33223 | 21997 ft | 318 kts | 140° |
| 2026-04-20 02:10 | 37.37004 | -122.31167 | 22829 ft | 323 kts | 140° |
| 2026-04-20 02:10 | 37.35457 | -122.29069 | 23617 ft | 329 kts | 140° |
| 2026-04-20 02:11 | 37.33863 | -122.26910 | 24289 ft | 335 kts | 140° |
| 2026-04-20 02:11 | 37.32267 | -122.24742 | 24974 ft | 340 kts | 140° |
| 2026-04-20 02:11 | 37.30641 | -122.22542 | 25648 ft | 345 kts | 140° |
| 2026-04-20 02:11 | 37.28988 | -122.20307 | 26283 ft | 351 kts | 140° |
| 2026-04-20 02:12 | 37.27313 | -122.18040 | 26911 ft | 356 kts | 140° |
| 2026-04-20 02:12 | 37.25614 | -122.15745 | 27510 ft | 362 kts | 140° |
| 2026-04-20 02:12 | 37.23864 | -122.13378 | 28107 ft | 367 kts | 140° |
| 2026-04-20 02:12 | 37.22126 | -122.11036 | 28714 ft | 372 kts | 140° |
| 2026-04-20 02:13 | 37.20334 | -122.08617 | 29302 ft | 378 kts | 139° |
| 2026-04-20 02:13 | 37.18521 | -122.06174 | 29882 ft | 382 kts | 139° |
| 2026-04-20 02:13 | 37.16706 | -122.03729 | 30471 ft | 384 kts | 139° |
| 2026-04-20 02:13 | 37.14908 | -122.01307 | 31073 ft | 384 kts | 139° |
| 2026-04-20 02:14 | 37.13084 | -121.98857 | 31689 ft | 384 kts | 140° |
| 2026-04-20 02:14 | 37.11251 | -121.96394 | 32326 ft | 385 kts | 140° |
| 2026-04-20 02:14 | 37.09417 | -121.93932 | 32916 ft | 385 kts | 140° |
| 2026-04-20 02:14 | 37.07578 | -121.91465 | 33486 ft | 385 kts | 140° |
| 2026-04-20 02:15 | 37.05758 | -121.89026 | 34018 ft | 386 kts | 140° |
| 2026-04-20 02:15 | 37.03917 | -121.86560 | 34499 ft | 386 kts | 140° |
| 2026-04-20 02:15 | 37.02080 | -121.84101 | 34952 ft | 386 kts | 140° |
| 2026-04-20 02:15 | 37.00269 | -121.81677 | 35392 ft | 385 kts | 140° |
| 2026-04-20 02:16 | 36.98426 | -121.79217 | 35838 ft | 384 kts | 140° |
| 2026-04-20 02:16 | 36.96599 | -121.76778 | 36282 ft | 384 kts | 140° |
| 2026-04-20 02:16 | 36.94764 | -121.74328 | 36726 ft | 384 kts | 140° |
| 2026-04-20 02:16 | 36.92929 | -121.71883 | 37163 ft | 384 kts | 140° |
| 2026-04-20 02:17 | 36.91098 | -121.69443 | 37604 ft | 383 kts | 140° |
| 2026-04-20 02:17 | 36.89277 | -121.67017 | 38040 ft | 383 kts | 140° |
| 2026-04-20 02:17 | 36.87469 | -121.64613 | 38482 ft | 382 kts | 140° |
| 2026-04-20 02:17 | 36.85646 | -121.62191 | 38868 ft | 382 kts | 140° |
| 2026-04-20 02:18 | 36.83825 | -121.59773 | 39228 ft | 382 kts | 140° |
| 2026-04-20 02:18 | 36.82015 | -121.57369 | 39597 ft | 381 kts | 140° |
| 2026-04-20 02:18 | 36.80191 | -121.54949 | 39971 ft | 381 kts | 141° |
| 2026-04-20 02:18 | 36.78341 | -121.52497 | 40335 ft | 380 kts | 141° |
| 2026-04-20 02:19 | 36.76549 | -121.50126 | 40732 ft | 380 kts | 141° |
| 2026-04-20 02:19 | 36.74727 | -121.47716 | 40908 ft | 385 kts | 141° |
| 2026-04-20 02:19 | 36.70946 | -121.42727 | 40948 ft | 404 kts | 140° |
| 2026-04-20 02:20 | 36.66986 | -121.37493 | 40957 ft | 420 kts | 140° |
| 2026-04-20 02:20 | 36.62924 | -121.32144 | 40957 ft | 433 kts | 140° |
| 2026-04-20 02:21 | 36.56680 | -121.23925 | 40948 ft | 436 kts | 140° |
| 2026-04-20 02:22 | 36.52475 | -121.18411 | 40944 ft | 436 kts | 140° |
| 2026-04-20 02:22 | 36.48315 | -121.12962 | 40939 ft | 437 kts | 140° |
| 2026-04-20 02:23 | 36.44120 | -121.07476 | 40935 ft | 437 kts | 140° |
| 2026-04-20 02:23 | 36.40749 | -121.02730 | 40933 ft | 440 kts | 137° |
| 2026-04-20 02:24 | 36.36073 | -120.96018 | 40930 ft | 441 kts | 137° |
| 2026-04-20 02:24 | 36.32052 | -120.90238 | 40927 ft | 442 kts | 137° |
| 2026-04-20 02:25 | 36.28690 | -120.85421 | 40931 ft | 443 kts | 137° |
| 2026-04-20 02:25 | 36.24609 | -120.79584 | 40928 ft | 444 kts | 137° |
| 2026-04-20 02:26 | 36.20557 | -120.73791 | 40927 ft | 444 kts | 137° |
| 2026-04-20 02:26 | 36.16488 | -120.67994 | 40935 ft | 444 kts | 137° |
| 2026-04-20 02:27 | 36.12434 | -120.62217 | 40938 ft | 444 kts | 137° |
| 2026-04-20 02:27 | 36.08371 | -120.56448 | 40935 ft | 444 kts | 137° |
| 2026-04-20 02:28 | 36.04301 | -120.50671 | 40937 ft | 443 kts | 137° |
| 2026-04-20 02:28 | 36.00258 | -120.44948 | 40931 ft | 444 kts | 137° |
| 2026-04-20 02:29 | 35.96180 | -120.39179 | 40932 ft | 444 kts | 137° |
| 2026-04-20 02:29 | 35.92114 | -120.33443 | 40930 ft | 445 kts | 137° |
| 2026-04-20 02:30 | 35.87950 | -120.27737 | 40928 ft | 441 kts | 143° |
| 2026-04-20 02:30 | 35.83144 | -120.23233 | 40923 ft | 429 kts | 155° |
| 2026-04-20 02:31 | 35.78032 | -120.19385 | 40921 ft | 430 kts | 155° |
| 2026-04-20 02:31 | 35.72956 | -120.15552 | 40916 ft | 428 kts | 155° |
| 2026-04-20 02:32 | 35.67868 | -120.11730 | 40921 ft | 429 kts | 155° |
| 2026-04-20 02:32 | 35.62774 | -120.07886 | 40920 ft | 429 kts | 155° |
| 2026-04-20 02:33 | 35.57673 | -120.04032 | 40918 ft | 429 kts | 155° |
| 2026-04-20 02:33 | 35.55083 | -120.02086 | 40701 ft | 434 kts | 155° |
| 2026-04-20 02:33 | 35.52490 | -120.00137 | 40226 ft | 434 kts | 155° |
| 2026-04-20 02:33 | 35.49926 | -119.98198 | 39750 ft | 428 kts | 154° |
| 2026-04-20 02:34 | 35.47396 | -119.96291 | 39266 ft | 423 kts | 154° |
| 2026-04-20 02:34 | 35.44885 | -119.94411 | 38785 ft | 424 kts | 154° |
| 2026-04-20 02:34 | 35.42348 | -119.92515 | 38253 ft | 429 kts | 154° |
| 2026-04-20 02:34 | 35.39794 | -119.90596 | 37765 ft | 431 kts | 153° |
| 2026-04-20 02:35 | 35.37233 | -119.88671 | 37282 ft | 433 kts | 153° |
| 2026-04-20 02:35 | 35.34653 | -119.86739 | 36793 ft | 435 kts | 153° |
| 2026-04-20 02:35 | 35.32065 | -119.84805 | 36307 ft | 437 kts | 153° |
| 2026-04-20 02:35 | 35.29468 | -119.82857 | 35815 ft | 439 kts | 152° |
| 2026-04-20 02:36 | 35.26978 | -119.80632 | 35317 ft | 444 kts | 146° |
| 2026-04-20 02:36 | 35.24525 | -119.78322 | 34814 ft | 445 kts | 147° |
| 2026-04-20 02:36 | 35.21985 | -119.75971 | 34302 ft | 446 kts | 147° |
| 2026-04-20 02:36 | 35.19506 | -119.73664 | 33782 ft | 448 kts | 146° |
| 2026-04-20 02:37 | 35.17036 | -119.71346 | 33253 ft | 448 kts | 146° |
| 2026-04-20 02:37 | 35.14562 | -119.69031 | 32740 ft | 448 kts | 146° |
| 2026-04-20 02:37 | 35.12087 | -119.66730 | 32243 ft | 447 kts | 146° |
| 2026-04-20 02:37 | 35.09609 | -119.64426 | 31736 ft | 446 kts | 146° |
| 2026-04-20 02:38 | 35.07138 | -119.62125 | 31236 ft | 446 kts | 146° |
| 2026-04-20 02:38 | 35.04664 | -119.59820 | 30733 ft | 446 kts | 146° |
| 2026-04-20 02:38 | 35.02192 | -119.57524 | 30237 ft | 445 kts | 146° |
| 2026-04-20 02:38 | 34.99725 | -119.55235 | 29700 ft | 445 kts | 145° |
| 2026-04-20 02:39 | 34.97267 | -119.52955 | 29192 ft | 442 kts | 146° |
| 2026-04-20 02:39 | 34.94824 | -119.50687 | 28692 ft | 440 kts | 146° |
| 2026-04-20 02:39 | 34.92380 | -119.48426 | 28196 ft | 439 kts | 145° |
| 2026-04-20 02:39 | 34.89952 | -119.46184 | 27684 ft | 437 kts | 146° |
| 2026-04-20 02:40 | 34.87491 | -119.43996 | 27070 ft | 438 kts | 147° |
| 2026-04-20 02:40 | 34.85029 | -119.41827 | 26586 ft | 436 kts | 146° |
| 2026-04-20 02:40 | 34.82585 | -119.39640 | 26101 ft | 434 kts | 146° |
| 2026-04-20 02:40 | 34.80167 | -119.37458 | 25623 ft | 433 kts | 146° |
| 2026-04-20 02:41 | 34.77735 | -119.35286 | 25151 ft | 431 kts | 146° |
| 2026-04-20 02:41 | 34.75311 | -119.33129 | 24670 ft | 431 kts | 146° |
| 2026-04-20 02:41 | 34.72888 | -119.30980 | 24196 ft | 428 kts | 146° |
| 2026-04-20 02:41 | 34.70505 | -119.28906 | 23729 ft | 412 kts | 147° |
| 2026-04-20 02:42 | 34.68219 | -119.26924 | 23241 ft | 396 kts | 147° |
| 2026-04-20 02:42 | 34.66015 | -119.24995 | 22796 ft | 386 kts | 147° |
| 2026-04-20 02:42 | 34.63849 | -119.23105 | 22371 ft | 382 kts | 147° |
| 2026-04-20 02:42 | 34.61691 | -119.21250 | 21947 ft | 378 kts | 147° |
| 2026-04-20 02:43 | 34.59549 | -119.19411 | 21533 ft | 376 kts | 147° |
| 2026-04-20 02:43 | 34.57427 | -119.17580 | 21115 ft | 373 kts | 147° |
| 2026-04-20 02:43 | 34.55324 | -119.15764 | 20707 ft | 370 kts | 147° |
| 2026-04-20 02:43 | 34.53245 | -119.13915 | 20306 ft | 368 kts | 146° |
| 2026-04-20 02:44 | 34.51201 | -119.12082 | 19889 ft | 366 kts | 146° |
| 2026-04-20 02:44 | 34.49152 | -119.10267 | 19484 ft | 364 kts | 146° |
| 2026-04-20 02:44 | 34.47101 | -119.08464 | 19079 ft | 362 kts | 147° |
| 2026-04-20 02:44 | 34.45070 | -119.06669 | 18676 ft | 360 kts | 146° |
| 2026-04-20 02:45 | 34.43721 | -119.05477 | 18404 ft | 358 kts | 146° |
| 2026-04-20 02:45 | 34.41698 | -119.03714 | 17985 ft | 356 kts | 147° |
| 2026-04-20 02:45 | 34.39032 | -119.01422 | 17481 ft | 351 kts | 147° |
| 2026-04-20 02:45 | 34.37691 | -119.00264 | 17223 ft | 349 kts | 147° |
| 2026-04-20 02:46 | 34.35747 | -118.98577 | 16836 ft | 346 kts | 147° |
| 2026-04-20 02:46 | 34.33797 | -118.96852 | 16450 ft | 345 kts | 144° |
| 2026-04-20 02:46 | 34.31909 | -118.95077 | 16067 ft | 342 kts | 146° |
| 2026-04-20 02:46 | 34.29979 | -118.93399 | 15687 ft | 340 kts | 146° |
| 2026-04-20 02:47 | 34.28067 | -118.91695 | 15311 ft | 339 kts | 145° |
| 2026-04-20 02:47 | 34.26261 | -118.90030 | 14977 ft | 318 kts | 145° |
| 2026-04-20 02:47 | 34.24524 | -118.88445 | 14623 ft | 305 kts | 145° |
| 2026-04-20 02:47 | 34.22878 | -118.86929 | 14283 ft | 296 kts | 145° |
| 2026-04-20 02:48 | 34.21249 | -118.85433 | 13953 ft | 289 kts | 145° |
| 2026-04-20 02:48 | 34.19644 | -118.83958 | 13615 ft | 285 kts | 145° |
| 2026-04-20 02:48 | 34.18093 | -118.82539 | 13286 ft | 282 kts | 145° |
| 2026-04-20 02:48 | 34.16537 | -118.81101 | 12967 ft | 279 kts | 144° |
| 2026-04-20 02:49 | 34.15097 | -118.79516 | 12654 ft | 278 kts | 140° |
| 2026-04-20 02:49 | 34.13655 | -118.77959 | 12335 ft | 276 kts | 141° |
| 2026-04-20 02:49 | 34.12218 | -118.76420 | 12035 ft | 275 kts | 141° |
| 2026-04-20 02:49 | 34.10812 | -118.74891 | 11736 ft | 269 kts | 140° |
| 2026-04-20 02:50 | 34.09435 | -118.73388 | 11435 ft | 265 kts | 140° |
| 2026-04-20 02:50 | 34.08086 | -118.71923 | 11147 ft | 262 kts | 140° |
| 2026-04-20 02:50 | 34.06738 | -118.70457 | 10871 ft | 259 kts | 140° |
| 2026-04-20 02:50 | 34.05389 | -118.68998 | 10582 ft | 260 kts | 140° |
| 2026-04-20 02:51 | 34.04047 | -118.67537 | 10293 ft | 260 kts | 139° |
| 2026-04-20 02:51 | 34.03044 | -118.65709 | 9986 ft | 266 kts | 114° |
| 2026-04-20 02:51 | 34.02664 | -118.63511 | 9690 ft | 269 kts | 100° |
| 2026-04-20 02:51 | 34.02463 | -118.61264 | 9393 ft | 268 kts | 98° |
| 2026-04-20 02:52 | 34.02279 | -118.59019 | 9093 ft | 267 kts | 99° |
| 2026-04-20 02:52 | 34.02070 | -118.56796 | 8791 ft | 266 kts | 99° |
| 2026-04-20 02:52 | 34.01854 | -118.54575 | 8501 ft | 266 kts | 99° |
| 2026-04-20 02:52 | 34.01644 | -118.52358 | 8205 ft | 263 kts | 99° |
| 2026-04-20 02:53 | 34.01449 | -118.50245 | 7924 ft | 246 kts | 99° |
| 2026-04-20 02:53 | 34.01259 | -118.48242 | 7653 ft | 233 kts | 99° |
| 2026-04-20 02:53 | 34.01080 | -118.46321 | 7392 ft | 226 kts | 99° |
| 2026-04-20 02:53 | 34.01214 | -118.44468 | 7144 ft | 225 kts | 81° |
| 2026-04-20 02:54 | 34.01548 | -118.42632 | 6904 ft | 222 kts | 81° |
| 2026-04-20 02:54 | 34.01866 | -118.40812 | 6661 ft | 220 kts | 82° |
| 2026-04-20 02:54 | 34.02188 | -118.38928 | 6410 ft | 218 kts | 81° |
| 2026-04-20 02:54 | 34.02484 | -118.37203 | 6167 ft | 218 kts | 81° |
| 2026-04-20 02:55 | 34.02761 | -118.35427 | 6031 ft | 211 kts | 87° |
| 2026-04-20 02:55 | 34.02911 | -118.33701 | 6002 ft | 203 kts | 85° |
| 2026-04-20 02:55 | 34.03104 | -118.31979 | 5642 ft | 212 kts | 85° |
| 2026-04-20 02:55 | 34.03293 | -118.30217 | 5275 ft | 215 kts | 85° |
| 2026-04-20 02:56 | 34.03503 | -118.28422 | 4909 ft | 216 kts | 83° |
| 2026-04-20 02:56 | 34.03763 | -118.26631 | 4548 ft | 217 kts | 82° |
| 2026-04-20 02:56 | 34.04016 | -118.24866 | 4176 ft | 217 kts | 82° |
| 2026-04-20 02:56 | 34.04278 | -118.23044 | 3798 ft | 217 kts | 82° |
| 2026-04-20 02:57 | 34.04526 | -118.21252 | 3440 ft | 217 kts | 83° |
| 2026-04-20 02:57 | 34.04742 | -118.19456 | 3072 ft | 217 kts | 83° |
| 2026-04-20 02:57 | 34.04945 | -118.17639 | 2741 ft | 216 kts | 83° |
| 2026-04-20 02:57 | 34.05134 | -118.15878 | 2637 ft | 206 kts | 83° |
| 2026-04-20 02:58 | 34.05313 | -118.14200 | 2609 ft | 196 kts | 83° |
| 2026-04-20 02:58 | 34.05482 | -118.12601 | 2599 ft | 192 kts | 83° |
| 2026-04-20 02:58 | 34.05654 | -118.11016 | 2596 ft | 189 kts | 83° |
| 2026-04-20 02:58 | 34.05783 | -118.09441 | 2598 ft | 187 kts | 94° |
| 2026-04-20 02:59 | 34.05147 | -118.08144 | 2592 ft | 184 kts | 146° |
| 2026-04-20 02:59 | 34.03914 | -118.07932 | 2595 ft | 184 kts | 196° |
| 2026-04-20 02:59 | 34.02940 | -118.08887 | 2601 ft | 183 kts | 231° |
| 2026-04-20 02:59 | 34.02148 | -118.10119 | 2604 ft | 184 kts | 232° |
| 2026-04-20 03:00 | 34.01380 | -118.11355 | 2612 ft | 186 kts | 232° |
| 2026-04-20 03:00 | 34.00638 | -118.12612 | 2611 ft | 188 kts | 240° |
| 2026-04-20 03:00 | 34.00530 | -118.14159 | 2591 ft | 192 kts | 289° |
| 2026-04-20 03:00 | 34.01073 | -118.15034 | 2592 ft | 193 kts | 321° |
| 2026-04-20 03:01 | 34.02610 | -118.16105 | 2607 ft | 195 kts | 335° |
| 2026-04-20 03:01 | 34.03946 | -118.16072 | 2596 ft | 198 kts | 25° |
| 2026-04-20 03:01 | 34.04824 | -118.14851 | 2595 ft | 197 kts | 71° |
| 2026-04-20 03:01 | 34.05004 | -118.13224 | 2596 ft | 196 kts | 99° |
| 2026-04-20 03:02 | 34.04290 | -118.11906 | 2592 ft | 195 kts | 146° |
| 2026-04-20 03:02 | 34.02985 | -118.11441 | 2607 ft | 194 kts | 170° |
| 2026-04-20 03:02 | 34.01650 | -118.11174 | 2618 ft | 194 kts | 171° |
| 2026-04-20 03:02 | 34.00305 | -118.10927 | 2618 ft | 194 kts | 171° |
| 2026-04-20 03:03 | 33.99004 | -118.11189 | 2593 ft | 196 kts | 212° |
| 2026-04-20 03:03 | 33.97977 | -118.12284 | 2601 ft | 195 kts | 226° |
| 2026-04-20 03:03 | 33.97066 | -118.13550 | 2612 ft | 195 kts | 229° |
| 2026-04-20 03:03 | 33.96306 | -118.14890 | 2595 ft | 197 kts | 246° |
| 2026-04-20 03:04 | 33.95969 | -118.16490 | 2587 ft | 197 kts | 260° |
| 2026-04-20 03:04 | 33.95785 | -118.18129 | 2613 ft | 197 kts | 262° |
| 2026-04-20 03:04 | 33.95618 | -118.19750 | 2617 ft | 197 kts | 262° |
| 2026-04-20 03:04 | 33.95450 | -118.21388 | 2615 ft | 197 kts | 262° |
| 2026-04-20 03:05 | 33.95283 | -118.23030 | 2616 ft | 197 kts | 262° |
| 2026-04-20 03:05 | 33.95114 | -118.24678 | 2616 ft | 196 kts | 262° |
| 2026-04-20 03:05 | 33.94954 | -118.26306 | 2588 ft | 198 kts | 262° |
| 2026-04-20 03:05 | 33.94782 | -118.27991 | 2358 ft | 207 kts | 262° |
| 2026-04-20 03:06 | 33.94671 | -118.29145 | 2074 ft | 207 kts | 263° |
| 2026-04-20 03:06 | 33.94493 | -118.30741 | 1751 ft | 170 kts | 262° |
| 2026-04-20 03:06 | 33.94363 | -118.31964 | 1442 ft | 134 kts | 262° |
| 2026-04-20 03:06 | 33.94268 | -118.33051 | 1111 ft | 125 kts | 263° |
| 2026-04-20 03:07 | 33.94166 | -118.34035 | 868 ft | 116 kts | 259° |
| 2026-04-20 03:07 | 33.94061 | -118.34977 | 658 ft | 112 kts | 264° |
| 2026-04-20 03:07 | 33.93980 | -118.35873 | 514 ft | 103 kts | 267° |
| 2026-04-20 03:07 | 33.93893 | -118.36723 | 370 ft | 100 kts | 264° |
| 2026-04-20 03:08 | 33.93808 | -118.37550 | 263 ft | 98 kts | 264° |
| 2026-04-20 03:08 | 33.93729 | -118.38350 | 132 ft | 87 kts | 263° |
| 2026-04-20 03:08 | 33.93667 | -118.38974 | 119 ft | 62 kts | 262° |
| 2026-04-20 03:08 | 33.93637 | -118.39262 | 117 ft | 27 kts | 263° |
| 2026-04-20 03:09 | 33.93583 | -118.39373 | 119 ft | 20 kts | 181° |
| 2026-04-20 03:09 | 33.93529 | -118.39374 | 119 ft | 0 kts | 186° |
| 2026-04-20 03:10 | 33.93527 | -118.39374 | 119 ft | 2 kts | 186° |
| 2026-04-20 03:10 | 33.93456 | -118.39387 | 119 ft | 15 kts | 179° |
| 2026-04-20 03:10 | 33.93382 | -118.39430 | 119 ft | 11 kts | 264° |
| 2026-04-20 03:11 | 33.93381 | -118.39440 | 119 ft | 0 kts | 272° |